createdAt,value
2019-04-29T00:02:07.189Z,1.95
2019-04-29T00:04:36.800Z,3.58
2019-04-29T00:07:06.379Z,3.70
2019-04-29T00:09:36.010Z,2.80
2019-04-29T00:12:05.722Z,3.15
2019-04-29T00:14:37.790Z,4.30
2019-04-29T00:17:09.548Z,4.47
2019-04-29T00:19:40.707Z,4.05
2019-04-29T00:22:10.300Z,2.60
2019-04-29T00:24:39.908Z,3.30
2019-04-29T00:27:09.515Z,3.08
2019-04-29T00:29:39.019Z,4.08
2019-04-29T00:32:09.121Z,3.45
2019-04-29T00:34:38.751Z,3.00
2019-04-29T00:37:28.426Z,4.22
2019-04-29T00:40:15.441Z,3.40
2019-04-29T00:43:01.321Z,2.77
2019-04-29T00:45:30.937Z,2.98
2019-04-29T00:48:00.202Z,4.60
2019-04-29T00:50:29.843Z,4.12
2019-04-29T00:52:59.356Z,2.62
2019-04-29T00:55:30.266Z,4.92
2019-04-29T00:57:59.532Z,3.95
2019-04-29T01:00:33.749Z,6.15
2019-04-29T01:03:03.282Z,2.80
2019-04-29T01:05:32.818Z,2.12
2019-04-29T01:08:02.423Z,3.35
2019-04-29T01:10:31.756Z,2.83
2019-04-29T01:13:01.332Z,3.85
2019-04-29T01:15:30.602Z,2.70
2019-04-29T01:18:00.174Z,3.45
2019-04-29T01:20:29.748Z,2.37
2019-04-29T01:22:59.348Z,4.97
2019-04-29T01:25:28.614Z,3.77
2019-04-29T01:28:03.289Z,5.67
2019-04-29T01:30:55.513Z,3.05
2019-04-29T01:33:25.124Z,2.35
2019-04-29T01:36:05.075Z,4.42
2019-04-29T01:38:34.274Z,2.22
2019-04-29T01:41:05.249Z,4.35
2019-04-29T01:43:52.501Z,3.10
2019-04-29T01:46:21.764Z,3.90
2019-04-29T01:48:51.027Z,6.03
2019-04-29T01:51:20.290Z,2.87
2019-04-29T01:53:49.836Z,5.10
2019-04-29T01:56:19.100Z,3.00
2019-04-29T01:58:49.056Z,4.17
2019-04-29T02:01:18.660Z,3.70
2019-04-29T02:03:48.272Z,3.42
2019-04-29T02:06:17.979Z,3.90
2019-04-29T02:08:48.099Z,5.33
2019-04-29T02:11:17.358Z,5.03
2019-04-29T02:13:46.618Z,5.10
2019-04-29T02:16:16.121Z,5.30
2019-04-29T02:18:45.628Z,4.20
2019-04-29T02:21:15.138Z,3.17
2019-04-29T02:23:48.729Z,3.98
2019-04-29T02:26:18.325Z,5.05
2019-04-29T02:28:47.932Z,6.05
2019-04-29T02:31:35.061Z,6.47
2019-04-29T02:34:04.907Z,5.00
2019-04-29T02:36:34.171Z,4.03
2019-04-29T02:39:18.175Z,7.40
2019-04-29T02:41:49.153Z,4.17
2019-04-29T02:44:18.472Z,4.97
2019-04-29T02:46:47.743Z,3.75
2019-04-29T02:49:17.002Z,3.87
2019-04-29T02:51:50.860Z,4.28
2019-04-29T02:54:20.563Z,4.47
2019-04-29T02:57:03.280Z,3.87
2019-04-29T02:59:52.610Z,6.30
2019-04-29T03:02:23.815Z,3.25
2019-04-29T03:05:12.674Z,3.92
2019-04-29T03:07:42.668Z,4.10
2019-04-29T03:10:12.685Z,4.53
2019-04-29T03:12:42.293Z,4.10
2019-04-29T03:15:12.457Z,4.25
2019-04-29T03:17:42.268Z,4.35
2019-04-29T03:20:22.141Z,4.90
2019-04-29T03:22:53.318Z,4.92
2019-04-29T03:25:22.825Z,4.92
2019-04-29T03:27:52.439Z,2.90
2019-04-29T03:30:21.776Z,3.70
2019-04-29T03:32:51.047Z,4.25
2019-04-29T03:35:20.355Z,3.42
2019-04-29T03:37:49.624Z,7.40
2019-04-29T03:40:18.884Z,3.92
2019-04-29T03:42:48.447Z,6.33
2019-04-29T03:45:17.712Z,3.72
2019-04-29T03:47:46.975Z,6.00
2019-04-29T03:50:16.303Z,4.65
2019-04-29T03:52:45.568Z,4.70
2019-04-29T03:55:15.154Z,6.87
2019-04-29T03:57:44.417Z,5.35
2019-04-29T04:00:17.432Z,4.87
2019-04-29T04:02:48.692Z,6.85
2019-04-29T04:05:35.374Z,8.50
2019-04-29T04:08:06.401Z,13.70
2019-04-29T04:10:35.659Z,5.80
2019-04-29T04:13:05.173Z,6.12
2019-04-29T04:15:34.743Z,4.83
2019-04-29T04:18:05.963Z,8.30
2019-04-29T04:20:35.598Z,7.47
2019-04-29T04:23:04.948Z,5.08
2019-04-29T04:25:34.517Z,5.10
2019-04-29T04:28:03.796Z,8.40
2019-04-29T04:30:33.319Z,9.13
2019-04-29T04:33:02.924Z,5.30
2019-04-29T04:35:32.184Z,7.10
2019-04-29T04:38:01.694Z,4.90
2019-04-29T04:40:33.211Z,6.45
2019-04-29T04:43:02.469Z,8.20
2019-04-29T04:45:31.734Z,6.00
2019-04-29T04:48:01.002Z,7.33
2019-04-29T04:50:30.585Z,5.72
2019-04-29T04:52:59.860Z,8.68
2019-04-29T04:55:30.830Z,6.67
2019-04-29T04:58:00.097Z,8.33
2019-04-29T05:00:30.998Z,9.83
2019-04-29T05:03:00.520Z,6.22
2019-04-29T05:05:29.850Z,6.33
2019-04-29T05:07:59.474Z,6.42
2019-04-29T05:10:28.903Z,6.87
2019-04-29T05:12:58.377Z,9.90
2019-04-29T05:15:51.815Z,7.12
2019-04-29T05:21:41.965Z,5.30
2019-04-29T05:24:11.227Z,6.83
2019-04-29T05:26:40.480Z,5.35
2019-04-29T05:29:09.744Z,6.00
2019-04-29T05:31:39.009Z,6.75
2019-04-29T05:34:08.269Z,8.40
2019-04-29T05:36:45.125Z,6.92
2019-04-29T05:39:16.030Z,4.95
2019-04-29T05:41:45.290Z,5.30
2019-04-29T05:44:22.283Z,5.55
2019-04-29T05:46:56.662Z,4.92
2019-04-29T05:49:27.562Z,4.03
2019-04-29T05:52:01.998Z,3.72
2019-04-29T05:54:32.104Z,3.10
2019-04-29T05:57:02.324Z,3.67
2019-04-29T05:59:31.596Z,4.30
2019-04-29T06:02:00.852Z,4.13
2019-04-29T06:04:30.128Z,4.30
2019-04-29T06:06:59.380Z,4.37
2019-04-29T06:09:28.638Z,4.80
2019-04-29T06:11:57.905Z,3.20
2019-04-29T06:14:27.163Z,4.17
2019-04-29T06:16:57.487Z,4.80
2019-04-29T06:19:27.398Z,4.57
2019-04-29T06:21:56.655Z,4.70
2019-04-29T06:24:25.912Z,3.40
2019-04-29T06:26:55.190Z,4.80
2019-04-29T06:29:24.474Z,2.60
2019-04-29T06:31:54.240Z,2.90
2019-04-29T06:34:23.840Z,2.77
2019-04-29T06:36:53.449Z,6.00
2019-04-29T06:39:22.972Z,6.90
2019-04-29T06:41:52.259Z,3.20
2019-04-29T06:44:21.527Z,2.70
2019-04-29T06:46:54.526Z,3.23
2019-04-29T06:49:22.088Z,3.80
2019-04-29T06:51:51.606Z,4.60
2019-04-29T06:54:20.885Z,2.23
2019-04-29T06:56:50.412Z,2.93
2019-04-29T06:59:19.695Z,3.60
2019-04-29T07:01:48.966Z,2.10
2019-04-29T07:04:18.249Z,2.30
2019-04-29T07:06:57.333Z,2.30
2019-04-29T07:09:18.812Z,2.67
2019-04-29T07:11:48.088Z,5.30
2019-04-29T07:14:17.359Z,2.47
2019-04-29T07:16:46.632Z,2.10
2019-04-29T07:19:15.905Z,6.50
2019-04-29T07:21:47.019Z,5.07
2019-04-29T07:24:16.170Z,2.40
2019-04-29T07:26:45.444Z,2.40
2019-04-29T07:29:14.731Z,4.10
2019-04-29T07:31:44.078Z,2.80
2019-04-29T07:34:13.515Z,4.07
2019-04-29T07:36:42.793Z,3.80
2019-04-29T07:39:12.067Z,2.27
2019-04-29T07:41:41.341Z,2.83
2019-04-29T07:44:13.604Z,2.13
2019-04-29T07:46:56.125Z,2.57
2019-04-29T07:49:17.183Z,3.10
2019-04-29T07:51:45.273Z,3.70
2019-04-29T07:54:15.863Z,2.33
2019-04-29T07:56:45.566Z,3.33
2019-04-29T07:59:14.861Z,2.47
2019-04-29T08:01:44.146Z,2.13
2019-04-29T08:04:13.420Z,4.00
2019-04-29T08:06:44.861Z,2.67
2019-04-29T08:09:14.199Z,2.70
2019-04-29T08:11:43.488Z,3.17
2019-04-29T08:14:13.196Z,3.03
2019-04-29T08:16:42.475Z,2.17
2019-04-29T08:19:11.757Z,2.40
2019-04-29T08:21:41.027Z,2.47
2019-04-29T08:24:11.586Z,2.10
2019-04-29T08:26:47.107Z,3.23
2019-04-29T08:29:12.303Z,3.43
2019-04-29T08:31:41.597Z,2.67
2019-04-29T08:34:10.876Z,3.17
2019-04-29T08:36:40.158Z,2.63
2019-04-29T08:39:09.855Z,3.37
2019-04-29T08:41:39.144Z,5.10
2019-04-29T08:44:16.431Z,3.33
2019-04-29T08:46:53.920Z,3.30
2019-04-29T08:49:23.203Z,2.63
2019-04-29T08:51:52.488Z,3.10
2019-04-29T08:54:21.761Z,4.87
2019-04-29T08:57:02.214Z,3.40
2019-04-29T08:59:24.590Z,3.03
2019-04-29T09:01:53.328Z,4.03
2019-04-29T09:04:22.598Z,3.30
2019-04-29T09:06:52.237Z,3.37
2019-04-29T09:09:29.106Z,3.67
2019-04-29T09:11:52.511Z,2.73
2019-04-29T09:14:22.075Z,3.40
2019-04-29T09:16:51.348Z,4.40
2019-04-29T09:19:20.997Z,3.70
2019-04-29T09:21:51.927Z,3.67
2019-04-29T09:24:21.531Z,3.10
2019-04-29T09:26:55.352Z,4.57
2019-04-29T09:29:31.442Z,5.20
2019-04-29T09:32:02.000Z,4.77
2019-04-29T09:34:31.447Z,3.70
2019-04-29T09:37:00.727Z,3.73
2019-04-29T09:39:42.327Z,3.50
2019-04-29T09:42:18.588Z,2.93
2019-04-29T09:44:49.500Z,3.20
2019-04-29T09:47:18.860Z,3.50
2019-04-29T09:49:48.432Z,3.97
2019-04-29T09:52:18.042Z,4.13
2019-04-29T09:54:47.646Z,5.73
2019-04-29T09:57:17.001Z,3.30
2019-04-29T09:59:47.916Z,4.10
2019-04-29T10:02:26.357Z,3.80
2019-04-29T10:05:07.273Z,4.70
2019-04-29T10:07:36.632Z,4.13
2019-04-29T10:10:09.259Z,3.80
2019-04-29T10:12:38.863Z,3.33
2019-04-29T10:15:10.360Z,2.93
2019-04-29T10:17:53.571Z,3.40
2019-04-29T10:20:23.162Z,3.20
2019-04-29T10:22:53.756Z,2.90
2019-04-29T10:25:24.305Z,4.60
2019-04-29T10:27:53.574Z,2.80
2019-04-29T10:30:26.857Z,3.00
2019-04-29T10:32:55.790Z,4.53
2019-04-29T10:35:25.398Z,3.10
2019-04-29T10:37:54.682Z,6.77
2019-04-29T10:40:45.988Z,3.33
2019-04-29T10:43:19.713Z,3.37
2019-04-29T10:45:59.877Z,5.60
2019-04-29T10:48:34.095Z,3.57
2019-04-29T10:51:05.012Z,4.00
2019-04-29T10:53:35.148Z,4.00
2019-04-29T10:56:05.729Z,6.87
2019-04-29T10:58:36.116Z,4.80
2019-04-29T11:01:32.776Z,2.80
2019-04-29T11:04:02.857Z,3.20
2019-04-29T11:06:35.982Z,3.93
2019-04-29T11:09:09.591Z,3.30
2019-04-29T11:11:40.293Z,3.50
2019-04-29T11:14:09.742Z,3.13
2019-04-29T11:16:46.537Z,2.80
2019-04-29T11:19:10.083Z,2.63
2019-04-29T11:21:39.530Z,4.33
2019-04-29T11:24:28.811Z,3.10
2019-04-29T11:27:11.269Z,2.40
2019-04-29T11:29:30.797Z,3.33
2019-04-29T11:32:01.782Z,3.00
2019-04-29T11:34:48.457Z,3.90
2019-04-29T11:37:19.572Z,1.73
2019-04-29T11:39:50.334Z,3.30
2019-04-29T11:42:20.026Z,3.83
2019-04-29T11:44:49.317Z,2.00
2019-04-29T11:47:20.915Z,3.27
2019-04-29T11:49:56.755Z,2.07
2019-04-29T11:52:28.101Z,3.03
2019-04-29T11:54:57.342Z,3.20
2019-04-29T11:57:40.748Z,3.37
2019-04-29T12:00:19.029Z,3.40
2019-04-29T12:02:50.274Z,1.73
2019-04-29T12:05:21.196Z,4.10
2019-04-29T12:07:50.817Z,4.90
2019-04-29T12:10:20.422Z,4.83
2019-04-29T12:12:50.221Z,4.43
2019-04-29T12:15:24.560Z,2.33
2019-04-29T12:17:58.113Z,3.63
2019-04-29T12:20:29.036Z,2.87
2019-04-29T12:22:58.309Z,2.77
2019-04-29T12:25:29.324Z,3.20
2019-04-29T12:28:01.702Z,2.40
2019-04-29T12:30:34.615Z,3.03
2019-04-29T12:33:07.270Z,2.40
2019-04-29T12:35:51.878Z,2.80
2019-04-29T12:38:39.797Z,1.50
2019-04-29T12:41:02.107Z,1.73
2019-04-29T12:43:35.594Z,3.13
2019-04-29T12:46:10.364Z,2.00
2019-04-29T12:48:39.838Z,2.13
2019-04-29T12:51:09.182Z,1.80
2019-04-29T12:53:38.453Z,7.50
2019-04-29T12:56:11.416Z,2.53
2019-04-29T12:58:39.559Z,2.60
2019-04-29T13:01:50.204Z,2.97
2019-04-29T13:04:15.942Z,2.17
2019-04-29T13:06:50.007Z,2.70
2019-04-29T13:09:30.157Z,3.20
2019-04-29T13:12:17.637Z,3.13
2019-04-29T13:14:33.279Z,3.20
2019-04-29T13:17:14.788Z,2.50
2019-04-29T13:20:02.403Z,1.80
2019-04-29T13:22:31.882Z,3.00
2019-04-29T13:25:01.165Z,1.63
2019-04-29T13:27:30.452Z,1.87
2019-04-29T13:29:59.750Z,1.67
2019-04-29T13:32:29.870Z,2.40
2019-04-29T13:35:05.223Z,2.00
2019-04-29T13:37:32.675Z,2.53
2019-04-29T13:40:01.954Z,4.37
2019-04-29T13:42:31.233Z,2.30
2019-04-29T13:45:07.754Z,5.07
2019-04-29T13:47:33.157Z,2.97
2019-04-29T13:50:18.064Z,2.73
2019-04-29T13:52:37.773Z,3.77
2019-04-29T13:55:17.023Z,4.00
2019-04-29T13:57:38.386Z,1.77
2019-04-29T14:00:12.453Z,2.80
2019-04-29T14:02:59.359Z,2.60
2019-04-29T14:05:32.501Z,2.60
2019-04-29T14:08:00.354Z,4.53
2019-04-29T14:10:29.953Z,4.03
2019-04-29T14:13:09.848Z,3.07
2019-04-29T14:15:33.991Z,2.47
2019-04-29T14:18:01.506Z,3.97
2019-04-29T14:20:31.154Z,3.33
2019-04-29T14:23:00.431Z,3.97
2019-04-29T14:25:29.701Z,4.93
2019-04-29T14:27:59.461Z,3.03
2019-04-29T14:30:38.367Z,3.50
2019-04-29T14:33:02.101Z,3.57
2019-04-29T14:35:36.101Z,2.17
2019-04-29T14:38:05.238Z,7.70
2019-04-29T14:40:39.017Z,3.90
2019-04-29T14:43:31.247Z,2.93
2019-04-29T14:46:05.363Z,2.33
2019-04-29T14:48:42.686Z,2.30
2019-04-29T14:51:12.029Z,4.47
2019-04-29T14:53:55.092Z,5.60
2019-04-29T14:56:15.579Z,3.93
2019-04-29T14:58:43.372Z,2.70
2019-04-29T15:01:14.323Z,3.53
2019-04-29T15:03:51.367Z,2.57
2019-04-29T15:06:20.730Z,3.40
2019-04-29T15:08:50.055Z,2.93
2019-04-29T15:11:31.507Z,5.00
2019-04-29T15:13:59.600Z,3.83
2019-04-29T15:16:36.567Z,5.90
2019-04-29T15:19:12.957Z,5.37
2019-04-29T15:21:43.805Z,3.73
2019-04-29T15:24:11.380Z,2.33
2019-04-29T15:26:40.670Z,2.67
2019-04-29T15:29:09.948Z,1.47
2019-04-29T15:31:42.441Z,2.70
2019-04-29T15:34:14.156Z,2.10
2019-04-29T15:36:42.027Z,1.97
2019-04-29T15:39:12.379Z,2.80
2019-04-29T15:41:42.206Z,1.87
2019-04-29T15:44:18.827Z,1.50
2019-04-29T15:46:46.677Z,1.67
2019-04-29T15:49:13.617Z,3.17
2019-04-29T15:51:44.038Z,1.50
2019-04-29T15:54:14.577Z,1.40
2019-04-29T15:56:45.081Z,2.60
2019-04-29T15:59:14.447Z,2.90
2019-04-29T16:01:44.113Z,2.00
2019-04-29T16:04:15.123Z,2.40
2019-04-29T16:06:48.767Z,4.53
2019-04-29T16:09:51.021Z,1.90
2019-04-29T16:12:14.504Z,2.60
2019-04-29T16:14:41.281Z,4.47
2019-04-29T16:17:10.553Z,2.07
2019-04-29T16:19:39.835Z,3.07
2019-04-29T16:22:13.016Z,2.73
2019-04-29T16:24:40.117Z,2.30
2019-04-29T16:27:10.503Z,5.23
2019-04-29T16:29:39.868Z,3.90
2019-04-29T16:32:10.837Z,3.23
2019-04-29T16:34:45.119Z,5.10
2019-04-29T16:37:11.116Z,6.00
2019-04-29T16:39:40.464Z,5.53
2019-04-29T16:42:14.201Z,6.13
2019-04-29T16:44:44.828Z,6.63
2019-04-29T16:47:15.674Z,5.73
2019-04-29T16:49:45.184Z,4.37
2019-04-29T16:52:14.461Z,5.90
2019-04-29T16:54:43.733Z,5.00
2019-04-29T16:57:13.180Z,3.83
2019-04-29T16:59:42.533Z,3.30
2019-04-29T17:02:18.952Z,3.70
2019-04-29T17:04:42.821Z,3.53
2019-04-29T17:07:14.001Z,5.90
2019-04-29T17:09:45.061Z,3.73
2019-04-29T17:12:14.400Z,3.70
2019-04-29T17:17:16.639Z,4.80
2019-04-29T17:19:45.920Z,7.03
2019-04-29T17:22:25.472Z,4.50
2019-04-29T17:24:46.880Z,4.53
2019-04-29T17:27:20.686Z,2.93
2019-04-29T17:30:03.748Z,5.60
2019-04-29T17:32:44.037Z,5.73
2019-04-29T17:35:09.009Z,4.77
2019-04-29T17:35:19.043Z,4.23
2019-04-29T17:37:38.492Z,5.70
2019-04-29T17:40:11.022Z,5.23
2019-04-29T17:42:41.937Z,5.10
2019-04-29T17:45:27.062Z,5.40
2019-04-29T17:47:51.882Z,4.30
2019-04-29T17:50:29.932Z,4.10
2019-04-29T17:52:53.822Z,3.67
2019-04-29T17:55:38.116Z,5.27
2019-04-29T17:58:21.140Z,7.07
2019-04-29T18:01:01.161Z,4.00
2019-04-29T18:03:42.704Z,6.70
2019-04-29T18:06:17.251Z,3.90
2019-04-29T18:09:02.582Z,3.20
2019-04-29T18:11:31.856Z,2.93
2019-04-29T18:14:01.131Z,3.70
2019-04-29T18:16:32.044Z,4.10
2019-04-29T18:19:02.958Z,6.30
2019-04-29T18:21:49.962Z,3.40
2019-04-29T18:24:25.243Z,3.07
2019-04-29T18:26:58.900Z,3.60
2019-04-29T18:29:28.174Z,5.43
2019-04-29T18:32:00.492Z,4.20
2019-04-29T18:34:29.309Z,3.33
2019-04-29T18:37:00.447Z,4.23
2019-04-29T18:39:31.685Z,4.60
2019-04-29T18:42:03.345Z,3.40
2019-04-29T18:44:32.090Z,4.17
2019-04-29T18:47:01.369Z,3.67
2019-04-29T18:49:30.636Z,7.70
2019-04-29T18:52:02.307Z,4.90
2019-04-29T18:54:30.912Z,5.10
2019-04-29T18:57:00.187Z,7.33
2019-04-29T18:59:33.453Z,8.87
2019-04-29T19:05:05.307Z,8.37
2019-04-29T19:10:49.874Z,4.93
2019-04-29T19:16:31.756Z,6.35
2019-04-29T19:19:02.010Z,5.70
2019-04-29T19:21:31.698Z,7.30
2019-04-29T19:24:01.013Z,6.00
2019-04-29T19:26:30.293Z,6.23
2019-04-29T19:29:01.285Z,5.80
2019-04-29T19:31:30.829Z,6.93
2019-04-29T19:34:00.461Z,6.90
2019-04-29T19:36:29.706Z,7.20
2019-04-29T19:38:58.973Z,6.97
2019-04-29T19:41:28.542Z,6.93
2019-04-29T19:43:58.151Z,7.57
2019-04-29T19:46:36.729Z,6.70
2019-04-29T19:49:07.511Z,8.80
2019-04-29T19:51:30.092Z,9.40
2019-04-29T19:53:59.351Z,8.70
2019-04-29T19:56:28.979Z,8.67
2019-04-29T19:59:03.133Z,6.70
2019-04-29T20:01:32.213Z,10.50
2019-04-29T20:04:22.248Z,5.80
2019-04-29T20:06:50.768Z,6.57
2019-04-29T20:09:23.597Z,6.53
2019-04-29T20:11:55.511Z,6.77
2019-04-29T20:14:27.836Z,6.70
2019-04-29T20:17:09.859Z,7.10
2019-04-29T20:19:42.374Z,6.43
2019-04-29T20:22:12.266Z,6.13
2019-04-29T20:24:41.724Z,6.30
2019-04-29T20:27:11.270Z,7.17
2019-04-29T20:29:40.762Z,6.90
2019-04-29T20:32:10.304Z,11.47
2019-04-29T20:34:39.808Z,7.60
2019-04-29T20:37:10.781Z,10.03
2019-04-29T20:39:40.345Z,6.50
2019-04-29T20:42:10.609Z,7.17
2019-04-29T20:44:44.763Z,6.20
2019-04-29T20:47:22.733Z,7.53
2019-04-29T20:49:42.275Z,7.90
2019-04-29T20:52:18.350Z,7.33
2019-04-29T20:54:45.217Z,7.10
2019-04-29T20:57:20.643Z,10.00
2019-04-29T20:59:50.148Z,8.97
2019-04-29T21:02:29.439Z,12.90
2019-04-29T21:04:48.511Z,12.80
2019-04-29T21:07:23.818Z,11.07
2019-04-29T21:09:48.914Z,12.37
2019-04-29T21:12:20.654Z,13.33
2019-04-29T21:14:51.716Z,15.00
2019-04-29T21:17:31.218Z,14.23
2019-04-29T21:19:51.997Z,14.73
2019-04-29T21:22:23.638Z,18.00
2019-04-29T21:24:53.815Z,15.57
2019-04-29T21:27:24.150Z,17.77
2019-04-29T21:29:55.407Z,17.77
2019-04-29T21:32:25.814Z,16.63
2019-04-29T21:35:16.916Z,19.67
2019-04-29T21:37:48.656Z,17.30
2019-04-29T21:40:28.664Z,16.33
2019-04-29T21:42:59.596Z,14.70
2019-04-29T21:45:28.853Z,16.97
2019-04-29T21:47:58.128Z,15.67
2019-04-29T21:50:33.891Z,17.20
2019-04-29T21:53:02.022Z,21.40
2019-04-29T21:55:29.640Z,18.93
2019-04-29T21:58:00.175Z,17.67
2019-04-29T22:00:29.603Z,18.77
2019-04-29T22:02:59.224Z,17.50
2019-04-29T22:05:28.825Z,18.33
2019-04-29T22:07:58.176Z,17.03
2019-04-29T22:10:29.076Z,18.73
2019-04-29T22:13:02.100Z,18.50
2019-04-29T22:15:33.199Z,19.43
2019-04-29T22:18:01.799Z,20.47
2019-04-29T22:20:35.673Z,20.23
2019-04-29T22:23:08.413Z,20.53
2019-04-29T22:25:36.518Z,21.57
2019-04-29T22:28:06.249Z,18.93
2019-04-29T22:30:35.858Z,20.10
2019-04-29T22:33:05.469Z,20.07
2019-04-29T22:35:37.196Z,20.10
2019-04-29T22:38:07.816Z,22.70
2019-04-29T22:40:40.908Z,20.20
2019-04-29T22:43:19.100Z,22.07
2019-04-29T22:45:48.658Z,20.87
2019-04-29T22:48:19.815Z,24.83
2019-04-29T22:50:49.518Z,26.47
2019-04-29T22:53:18.788Z,23.07
2019-04-29T22:55:48.318Z,24.03
2019-04-29T22:58:17.933Z,23.90
2019-04-29T23:00:47.534Z,25.30
2019-04-29T23:03:17.142Z,25.13
2019-04-29T23:05:46.751Z,24.30
2019-04-29T23:08:16.023Z,24.67
2019-04-29T23:10:45.689Z,24.20
2019-04-29T23:13:15.162Z,23.47
2019-04-29T23:15:45.566Z,28.00
2019-04-29T23:18:24.311Z,29.23
2019-04-29T23:20:47.882Z,30.37
2019-04-29T23:23:18.788Z,28.80
2019-04-29T23:25:52.932Z,29.90
2019-04-29T23:28:26.890Z,27.40
2019-04-29T23:30:54.398Z,28.33
2019-04-29T23:33:25.926Z,27.70
2019-04-29T23:35:56.046Z,37.17
2019-04-29T23:38:25.785Z,32.37
2019-04-29T23:40:56.433Z,33.63
2019-04-29T23:43:28.366Z,30.23
2019-04-29T23:46:00.566Z,32.00
2019-04-29T23:48:38.834Z,33.60
2019-04-29T23:50:59.113Z,36.47
2019-04-29T23:53:28.650Z,31.73
2019-04-29T23:56:00.124Z,29.80
2019-04-29T23:58:40.253Z,30.20
